Wilkerson Pass, Colorado
Current Conditions -  °F | °C
As of 3:35 AM on Sunday 26 Oct 2014 (Local Time) from KAEJ Reporting Station
Overcast Overcast  
Wind Chill: 45°   Ceiling: 7500
Heat Index: 45°   Visibility: 10mi
Dew Point: 26°   Wind: 3mph
Humidity: 47%   Direction: 120°ESE
Pressure: 30.16"   Gusts: NA
Location:  39.04°N, 105.53°W
Report Text: KAEJ 260935Z AUTO 12003KT 10SM BKN075 OVC085 07/M03 A3016 RMK AO2 T00741034
Loading
Personal Weather Stations






























Interactive Weather Map
Tropical Storm Tracking
New forecast layout! Learn more

10-Day Weather Forecast

Advertisements
Track Severe Weather on mobile